Terminal Aerodrome Forecast
Issued by NWS

Home | Current Version | Previous Version | Graphics & Text | Print | Product List | Glossary On
Versions: 1 2 3 4 5 6 7 8 9 10 11 12 13 14 15 16 17
354
FTUS43 KUNR 281730
TAFGCC
TAF
KGCC 281730Z 2818/2918 34008KT P6SM BKN025
     FM282000 35012KT P6SM SCT100
     FM290100 VRB06KT P6SM SKC=

USA.gov is the U.S. government's official web portal to all federal, state and local government web resources and services.